Time;durP1;ratioP1;P1;durP2;ratioP2;P2;SDS_P1;SDS_P2;PMS_P1;PMS_P2;Temp;Humidity;BMP_temperature;BMP_pressure;BME280_temperature;BME280_humidity;BME280_pressure;Samples;Min_cycle;Max_cycle;Signal;HPM_P1;HPM_P2
2021/06/10 00:00:23;;;;;;;6.10;5.50;;;15.60;99.90;15.00;97151.00;;;;5029788;28;20225;-61
2021/06/10 00:03:11;;;;;;;5.80;4.77;;;15.50;99.90;15.10;97149.00;;;;5046033;28;20200;-62
2021/06/10 00:06:00;;;;;;;6.00;5.40;;;15.50;99.90;15.10;97141.00;;;;5036541;28;20723;-62
2021/06/10 00:08:50;;;;;;;5.13;4.70;;;15.50;99.90;15.10;97144.00;;;;5045558;28;20672;-60
2021/06/10 00:11:38;;;;;;;5.43;5.00;;;15.40;99.90;15.20;97142.00;;;;5045018;28;20577;-60
2021/06/10 00:14:27;;;;;;;7.70;6.03;;;15.50;99.90;15.20;97136.00;;;;5045472;28;20215;-60
2021/06/10 00:17:17;;;;;;;5.43;4.93;;;15.50;99.90;15.20;97143.00;;;;5033222;28;20208;-62
2021/06/10 00:20:10;;;;;;;5.43;4.93;;;15.50;99.90;15.20;97140.00;;;;5045455;28;20221;-61
2021/06/10 00:22:58;;;;;;;5.40;4.90;;;15.50;99.90;15.30;97147.00;;;;5045743;28;20207;-60
2021/06/10 00:25:47;;;;;;;5.87;5.23;;;15.50;99.90;15.30;97143.00;;;;5039753;28;20207;-59
2021/06/10 00:28:35;;;;;;;5.53;5.03;;;15.60;99.90;15.20;97135.00;;;;5041586;28;20212;-62
2021/06/10 00:31:24;;;;;;;5.33;4.83;;;15.60;99.90;15.10;97135.00;;;;5044161;28;20200;-61
2021/06/10 00:34:14;;;;;;;6.43;5.87;;;15.50;99.90;15.00;97136.00;;;;5039716;28;20200;-62
2021/06/10 00:37:02;;;;;;;6.10;5.23;;;15.50;99.90;15.00;97135.00;;;;5037847;28;20203;-62
2021/06/10 00:39:50;;;;;;;5.40;5.00;;;15.50;99.90;14.90;97131.00;;;;5033896;28;20228;-61
2021/06/10 00:42:40;;;;;;;6.67;5.30;;;15.50;99.90;15.00;97133.00;;;;5045319;28;20207;-62
2021/06/10 00:45:30;;;;;;;5.83;5.23;;;15.40;99.90;15.00;97137.00;;;;5045976;28;20189;-61
2021/06/10 00:48:19;;;;;;;6.03;5.47;;;15.40;99.90;15.00;97132.00;;;;5044751;28;20204;-62
2021/06/10 00:51:08;;;;;;;9.63;5.90;;;15.40;99.90;15.10;97131.00;;;;5038023;28;20522;-61
2021/06/10 00:53:59;;;;;;;8.27;6.40;;;15.40;99.90;15.10;97128.00;;;;5026139;28;20307;-62
2021/06/10 00:56:49;;;;;;;5.97;5.47;;;15.40;99.90;15.00;97125.00;;;;5040055;28;20205;-61
2021/06/10 00:59:38;;;;;;;5.50;4.87;;;15.40;99.90;15.10;97121.00;;;;5045899;28;20243;-60
2021/06/10 01:02:26;;;;;;;5.30;4.80;;;15.40;99.90;15.20;97116.00;;;;5032989;28;20205;-62
2021/06/10 01:05:15;;;;;;;9.07;5.90;;;15.50;99.90;15.00;97119.00;;;;5045044;28;20215;-60
2021/06/10 01:08:15;;;;;;;6.17;5.57;;;15.40;99.90;15.10;97118.00;;;;5045998;28;20204;-62
2021/06/10 01:11:14;;;;;;;5.53;5.07;;;15.40;99.90;15.00;97106.00;;;;5035441;28;20216;-62
2021/06/10 01:14:11;;;;;;;5.57;5.07;;;15.40;99.90;15.00;97104.00;;;;5044615;28;20204;-60
2021/06/10 01:17:01;;;;;;;5.20;4.80;;;15.40;99.90;15.10;97108.00;;;;5026273;28;20214;-61
2021/06/10 01:20:05;;;;;;;5.20;4.70;;;15.40;99.90;15.00;97100.00;;;;5025013;28;20221;-62
2021/06/10 01:23:06;;;;;;;5.67;5.17;;;15.40;99.90;14.90;97102.00;;;;5025626;28;20193;-62
2021/06/10 01:26:20;;;;;;;7.23;5.67;;;15.40;99.90;15.00;97100.00;;;;5036474;28;20212;-62
2021/06/10 01:29:16;;;;;;;5.60;5.10;;;15.30;99.90;15.00;97094.00;;;;5036955;28;20235;-61
2021/06/10 01:32:07;;;;;;;6.40;5.50;;;15.30;99.90;14.90;97102.00;;;;5045215;28;20578;-61
2021/06/10 01:34:57;;;;;;;5.90;5.30;;;15.30;99.90;14.90;97093.00;;;;5045927;28;20204;-62
2021/06/10 01:37:47;;;;;;;9.50;5.57;;;15.30;99.90;14.90;97091.00;;;;5045370;28;20196;-62
2021/06/10 01:40:38;;;;;;;6.70;6.00;;;15.30;99.90;14.90;97088.00;;;;5044705;28;20220;-61
2021/06/10 01:43:30;;;;;;;5.53;5.03;;;15.30;99.90;14.90;97086.00;;;;5045877;28;20205;-61
2021/06/10 01:46:23;;;;;;;6.87;5.60;;;15.30;99.90;14.80;97081.00;;;;5045006;28;20611;-60
2021/06/10 01:49:15;;;;;;;6.20;5.60;;;15.20;99.90;14.80;97085.00;;;;5044923;28;20221;-62
2021/06/10 01:52:06;;;;;;;4.87;4.27;;;15.20;99.90;14.80;97079.00;;;;5030431;28;20217;-62
2021/06/10 01:54:56;;;;;;;6.27;5.53;;;15.20;99.90;14.80;97086.00;;;;5025424;28;20205;-62
2021/06/10 01:57:46;;;;;;;6.30;5.37;;;15.20;99.90;14.90;97087.00;;;;5034368;28;20494;-61
2021/06/10 02:00:36;;;;;;;5.97;5.47;;;15.20;99.90;14.80;97083.00;;;;5044223;28;20767;-61
2021/06/10 02:03:29;;;;;;;6.60;5.20;;;15.20;99.90;14.80;97087.00;;;;5044474;28;20197;-61
2021/06/10 02:06:19;;;;;;;5.47;4.97;;;15.20;99.90;14.80;97085.00;;;;5045839;28;20203;-62
2021/06/10 02:09:10;;;;;;;7.83;5.57;;;15.20;99.90;14.80;97075.00;;;;5044105;28;20239;-61
2021/06/10 02:11:58;;;;;;;6.67;5.87;;;15.20;99.90;14.80;97086.00;;;;5041008;28;20208;-61
2021/06/10 02:14:47;;;;;;;6.23;5.07;;;15.10;99.90;14.90;97083.00;;;;5044077;28;20231;-63
2021/06/10 02:17:36;;;;;;;7.03;5.73;;;15.10;99.90;14.90;97082.00;;;;5044373;28;20215;-60
2021/06/10 02:20:26;;;;;;;6.77;6.03;;;15.20;99.90;15.00;97086.00;;;;5043394;28;20236;-62
2021/06/10 02:23:14;;;;;;;8.37;6.33;;;15.20;99.90;15.00;97087.00;;;;5043419;28;20204;-62
2021/06/10 02:26:03;;;;;;;8.47;6.50;;;15.20;99.90;14.90;97083.00;;;;5044895;28;20201;-62
2021/06/10 02:28:51;;;;;;;7.63;6.13;;;15.20;99.90;15.00;97085.00;;;;5045095;28;20216;-61
2021/06/10 02:31:40;;;;;;;7.37;6.67;;;15.30;99.90;15.00;97083.00;;;;5030072;28;20212;-61
2021/06/10 02:34:28;;;;;;;6.03;5.30;;;15.30;99.90;14.90;97092.00;;;;5043984;28;20562;-61
2021/06/10 02:37:20;;;;;;;7.10;6.10;;;15.30;99.90;15.00;97092.00;;;;5046810;28;20208;-60
2021/06/10 02:40:12;;;;;;;9.03;5.77;;;15.30;99.90;14.90;97089.00;;;;5047944;28;20262;-61
2021/06/10 02:43:04;;;;;;;7.27;6.40;;;15.30;99.90;14.90;97088.00;;;;5031704;28;20213;-61
2021/06/10 02:45:53;;;;;;;6.57;5.97;;;15.30;99.90;15.00;97095.00;;;;5039472;28;20205;-61
2021/06/10 02:48:42;;;;;;;6.27;5.67;;;15.30;99.90;14.90;97099.00;;;;5047419;28;20680;-61
2021/06/10 02:51:33;;;;;;;7.37;6.17;;;15.30;99.90;14.90;97099.00;;;;5035433;28;20203;-62
2021/06/10 02:54:23;;;;;;;6.97;6.27;;;15.30;99.90;14.90;97093.00;;;;5034718;28;20232;-61
2021/06/10 02:57:11;;;;;;;9.83;6.63;;;15.30;99.90;14.90;97090.00;;;;5041054;28;20664;-60
2021/06/10 03:00:01;;;;;;;6.57;6.00;;;15.30;99.90;14.90;97091.00;;;;5038969;28;20229;-61
2021/06/10 03:02:50;;;;;;;6.87;6.17;;;15.20;99.90;14.90;97096.00;;;;5036587;28;20201;-61
2021/06/10 03:05:40;;;;;;;6.93;6.27;;;15.20;99.90;15.00;97092.00;;;;5044668;28;20581;-61
2021/06/10 03:08:29;;;;;;;6.67;6.07;;;15.20;99.90;14.80;97089.00;;;;5047449;28;20201;-61
2021/06/10 03:11:22;;;;;;;7.13;6.43;;;15.20;99.90;14.80;97111.00;;;;5046384;28;20518;-61
2021/06/10 03:14:12;;;;;;;15.10;12.47;;;15.20;99.90;14.90;97098.00;;;;5027693;28;20695;-61
2021/06/10 03:17:02;;;;;;;11.53;6.33;;;15.20;99.90;14.80;97097.00;;;;5008225;28;20209;-61
2021/06/10 03:19:51;;;;;;;11.63;7.03;;;15.20;99.90;14.90;97103.00;;;;5007167;28;20234;-61
2021/06/10 03:22:40;;;;;;;7.70;6.23;;;15.20;99.90;14.90;97103.00;;;;5009559;28;20213;-61
2021/06/10 03:25:30;;;;;;;10.90;7.47;;;15.20;99.90;14.80;97107.00;;;;5009421;28;20201;-61
2021/06/10 03:28:22;;;;;;;8.37;6.67;;;15.20;99.90;14.70;97102.00;;;;5022962;28;20202;-61
2021/06/10 03:31:10;;;;;;;8.67;6.70;;;15.20;99.90;14.80;97098.00;;;;5007494;28;20248;-60
2021/06/10 03:33:59;;;;;;;7.77;6.33;;;15.10;99.90;14.80;97105.00;;;;5008182;28;20194;-61
2021/06/10 03:36:48;;;;;;;11.30;6.20;;;15.20;99.90;14.80;97106.00;;;;5028506;28;20212;-62
2021/06/10 03:39:40;;;;;;;9.57;7.33;;;15.10;99.90;14.70;97099.00;;;;5008095;28;20241;-60
2021/06/10 03:42:29;;;;;;;9.13;7.00;;;15.20;99.90;14.40;97097.00;;;;5007296;28;20202;-62
2021/06/10 03:45:20;;;;;;;9.47;7.10;;;15.10;99.90;14.40;97105.00;;;;5007682;28;20217;-61
2021/06/10 03:48:11;;;;;;;9.50;7.37;;;15.00;99.90;14.40;97106.00;;;;5008671;28;20786;-61
2021/06/10 03:50:59;;;;;;;9.00;7.53;;;14.90;99.90;14.40;97117.00;;;;5017514;28;20237;-61
2021/06/10 03:53:49;;;;;;;9.53;7.70;;;14.90;99.90;14.50;97108.00;;;;5007795;28;20209;-61
2021/06/10 03:56:38;;;;;;;7.20;6.50;;;14.90;99.90;14.40;97105.00;;;;5006866;28;20201;-61
2021/06/10 03:59:26;;;;;;;7.10;6.40;;;14.90;99.90;14.60;97110.00;;;;5007109;28;20245;-60
2021/06/10 04:02:16;;;;;;;7.57;6.57;;;14.90;99.90;14.60;97116.00;;;;5007222;28;20209;-60
2021/06/10 04:05:07;;;;;;;7.67;7.00;;;14.90;99.90;14.80;97112.00;;;;5007675;28;20217;-60
2021/06/10 04:07:56;;;;;;;6.83;6.17;;;15.00;99.90;14.70;97107.00;;;;5008336;28;20209;-60
2021/06/10 04:10:45;;;;;;;7.90;7.10;;;15.00;99.90;14.80;97113.00;;;;5006830;28;20229;-62
2021/06/10 04:13:33;;;;;;;8.20;6.83;;;15.00;99.90;14.90;97116.00;;;;5012729;28;20228;-61
2021/06/10 04:16:21;;;;;;;7.80;6.83;;;15.10;99.90;14.80;97130.00;;;;5026959;28;20205;-61
2021/06/10 04:19:12;;;;;;;7.73;6.93;;;15.10;99.90;14.70;97128.00;;;;5026154;28;20232;-61
2021/06/10 04:22:01;;;;;;;7.47;6.77;;;15.10;99.90;14.70;97127.00;;;;5025734;28;20201;-61
2021/06/10 04:24:49;;;;;;;7.13;6.47;;;15.10;99.90;14.80;97134.00;;;;5027228;28;20224;-62
2021/06/10 04:27:37;;;;;;;7.83;7.13;;;15.10;99.90;14.80;97134.00;;;;5026666;28;20213;-61
2021/06/10 04:30:26;;;;;;;6.63;6.10;;;15.20;99.90;14.90;97138.00;;;;5025974;28;20225;-60
2021/06/10 04:33:14;;;;;;;8.33;7.53;;;15.20;99.90;15.00;97133.00;;;;5026289;28;20606;-61
2021/06/10 04:36:04;;;;;;;7.23;6.57;;;15.20;99.90;15.10;97136.00;;;;5039591;28;20224;-61
2021/06/10 04:38:53;;;;;;;6.80;6.20;;;15.30;99.90;15.10;97126.00;;;;5025083;28;20601;-61
2021/06/10 04:41:42;;;;;;;8.13;7.33;;;15.30;99.90;15.10;97131.00;;;;5023937;28;20194;-59
2021/06/10 04:44:30;;;;;;;7.73;7.03;;;15.30;99.90;14.90;97134.00;;;;5044787;28;20749;-61
2021/06/10 04:47:19;;;;;;;7.80;7.07;;;15.30;99.90;15.00;97131.00;;;;5042613;28;20205;-62
2021/06/10 04:50:09;;;;;;;8.63;7.83;;;15.30;99.90;15.00;97124.00;;;;5033790;28;20224;-62
2021/06/10 04:52:59;;;;;;;7.20;6.50;;;15.40;99.90;15.00;97121.00;;;;5025989;28;20212;-62
2021/06/10 04:55:47;;;;;;;8.87;7.20;;;15.40;99.90;15.00;97114.00;;;;5025660;28;20210;-61
2021/06/10 04:58:36;;;;;;;8.83;7.60;;;15.40;99.90;15.20;97121.00;;;;5026059;28;20201;-61
2021/06/10 05:01:24;;;;;;;8.73;7.17;;;15.40;99.90;15.00;97123.00;;;;5025181;28;20204;-62
2021/06/10 05:04:13;;;;;;;8.67;6.27;;;15.50;99.90;15.30;97125.00;;;;5025727;28;20707;-62
2021/06/10 05:07:01;;;;;;;7.63;6.83;;;15.50;99.90;15.40;97125.00;;;;5031010;28;20201;-61
2021/06/10 05:09:52;;;;;;;8.53;7.77;;;15.60;99.90;15.60;97128.00;;;;5034068;28;20224;-61
2021/06/10 05:12:40;;;;;;;8.63;7.40;;;15.70;99.90;15.50;97132.00;;;;5038004;28;20215;-61
2021/06/10 05:15:28;;;;;;;9.27;8.23;;;15.70;99.90;15.70;97122.00;;;;5046687;28;20208;-61
2021/06/10 05:18:16;;;;;;;7.73;7.03;;;15.80;99.90;15.50;97122.00;;;;5040404;28;20216;-60
2021/06/10 05:21:05;;;;;;;8.47;7.67;;;16.20;99.90;15.70;97118.00;;;;5039257;28;20243;-60
2021/06/10 05:23:54;;;;;;;7.10;6.17;;;15.80;99.90;15.70;97123.00;;;;5036309;28;20205;-61
2021/06/10 05:26:46;;;;;;;7.73;6.97;;;15.90;99.90;15.60;97120.00;;;;5024096;28;20202;-62
2021/06/10 05:29:35;;;;;;;7.67;6.97;;;15.90;99.90;15.70;97121.00;;;;5026781;28;20232;-61
2021/06/10 05:32:24;;;;;;;10.20;6.93;;;16.00;99.90;15.70;97125.00;;;;5025403;28;20208;-61
2021/06/10 05:35:13;;;;;;;7.60;6.80;;;16.00;99.90;15.80;97128.00;;;;5035043;28;20203;-61
2021/06/10 05:38:02;;;;;;;7.70;6.90;;;16.00;99.90;15.80;97120.00;;;;5024720;28;20216;-60
2021/06/10 05:40:50;;;;;;;11.10;6.97;;;16.00;99.90;15.70;97114.00;;;;5030827;28;20244;-62
2021/06/10 05:43:40;;;;;;;8.83;6.70;;;16.10;99.90;15.90;97122.00;;;;5035735;28;20213;-62
2021/06/10 05:46:28;;;;;;;8.03;6.93;;;16.10;99.90;16.00;97126.00;;;;5025412;28;20711;-64
2021/06/10 05:49:17;;;;;;;10.87;7.17;;;16.20;99.90;15.90;97118.00;;;;5038264;28;20805;-62
2021/06/10 05:52:06;;;;;;;7.23;6.50;;;16.20;99.90;15.90;97127.00;;;;5044660;28;20207;-62
2021/06/10 05:54:55;;;;;;;11.50;7.13;;;16.20;99.90;15.90;97115.00;;;;5050034;28;20198;-61
2021/06/10 05:57:43;;;;;;;9.13;8.20;;;16.20;99.90;15.90;97118.00;;;;5042456;28;20591;-61
2021/06/10 06:00:33;;;;;;;8.80;7.90;;;16.20;99.90;16.10;97110.00;;;;5035529;28;20240;-60
2021/06/10 06:03:22;;;;;;;10.13;7.43;;;16.30;99.90;16.40;97114.00;;;;5025107;28;20211;-62
2021/06/10 06:06:10;;;;;;;10.93;7.70;;;16.40;99.90;16.50;97118.00;;;;5024994;28;20212;-60
2021/06/10 06:08:59;;;;;;;6.63;5.87;;;16.50;99.90;16.50;97131.00;;;;5044166;28;20212;-61
2021/06/10 06:11:50;;;;;;;10.40;7.20;;;16.60;99.90;16.60;97127.00;;;;5037949;28;20196;-62
2021/06/10 06:14:40;;;;;;;8.40;6.97;;;16.70;99.90;16.50;97123.00;;;;5045748;28;20679;-61
2021/06/10 06:17:30;;;;;;;8.27;6.67;;;16.70;99.90;16.60;97139.00;;;;5040862;28;20758;-62
2021/06/10 06:20:20;;;;;;;8.40;7.17;;;16.80;99.90;16.90;97131.00;;;;5041127;28;20224;-62
2021/06/10 06:23:09;;;;;;;7.13;6.53;;;16.90;99.90;16.70;97137.00;;;;5035441;28;20219;-62
2021/06/10 06:25:59;;;;;;;7.80;6.90;;;16.90;99.90;16.90;97126.00;;;;5046250;28;20208;-62
2021/06/10 06:28:47;;;;;;;10.57;7.40;;;17.00;99.90;16.80;97129.00;;;;5037649;28;20688;-62
2021/06/10 06:31:37;;;;;;;10.07;6.80;;;17.10;99.90;16.80;97136.00;;;;5041896;28;20197;-61
2021/06/10 06:34:27;;;;;;;8.20;6.60;;;17.10;99.90;16.90;97130.00;;;;5037815;28;20568;-61
2021/06/10 06:37:16;;;;;;;10.30;7.40;;;17.10;99.90;17.00;97124.00;;;;5030896;28;20582;-61
2021/06/10 06:40:06;;;;;;;7.63;6.87;;;17.20;99.90;17.10;97133.00;;;;5037594;28;20309;-62
2021/06/10 06:42:55;;;;;;;8.00;6.20;;;17.20;99.90;17.30;97134.00;;;;5027623;28;20294;-62
2021/06/10 06:45:44;;;;;;;8.10;6.93;;;17.30;99.90;17.40;97131.00;;;;5036106;28;20698;-59
2021/06/10 06:48:32;;;;;;;7.93;6.83;;;17.40;99.90;17.50;97134.00;;;;5038334;28;20198;-61
2021/06/10 06:51:22;;;;;;;7.93;7.17;;;17.50;99.90;17.40;97133.00;;;;5046325;28;20215;-62
2021/06/10 06:54:10;;;;;;;7.17;6.47;;;17.50;99.90;17.40;97135.00;;;;5040983;28;20608;-62
2021/06/10 06:56:59;;;;;;;6.83;6.23;;;17.60;99.90;17.60;97142.00;;;;5034977;28;20217;-62
2021/06/10 06:59:47;;;;;;;11.13;7.80;;;17.60;99.90;17.90;97136.00;;;;5042981;28;20237;-61
2021/06/10 07:02:35;;;;;;;11.53;6.77;;;17.70;99.90;18.10;97137.00;;;;5042985;28;20207;-61
2021/06/10 07:05:26;;;;;;;7.00;6.30;;;17.90;99.90;18.40;97133.00;;;;5048781;28;20202;-62
2021/06/10 07:08:16;;;;;;;8.70;6.10;;;18.10;99.90;18.30;97135.00;;;;5033816;28;20212;-62
2021/06/10 07:11:05;;;;;;;7.67;6.87;;;18.30;99.90;18.70;97129.00;;;;5029056;28;20225;-62
2021/06/10 07:13:53;;;;;;;6.93;6.33;;;18.40;99.90;18.80;97128.00;;;;5032987;28;20208;-62
2021/06/10 07:16:42;;;;;;;7.30;6.40;;;18.60;99.90;18.80;97133.00;;;;5041298;28;20207;-61
2021/06/10 07:19:31;;;;;;;8.33;6.87;;;18.70;99.90;19.30;97133.00;;;;5046316;28;20211;-62
2021/06/10 07:22:20;;;;;;;7.90;7.10;;;19.00;99.90;19.40;97135.00;;;;5049543;28;20801;-63
2021/06/10 07:25:11;;;;;;;9.27;6.80;;;19.10;99.90;19.20;97126.00;;;;5033110;28;20577;-62
2021/06/10 07:27:59;;;;;;;9.57;6.90;;;19.20;99.90;19.60;97127.00;;;;5044690;28;20585;-62
2021/06/10 07:30:48;;;;;;;12.37;7.03;;;19.40;99.90;19.80;97128.00;;;;5042651;28;20283;-63
2021/06/10 07:33:37;;;;;;;10.03;6.87;;;19.50;99.90;19.90;97143.00;;;;5028458;28;20205;-62
2021/06/10 07:36:25;;;;;;;6.87;5.60;;;19.60;99.90;19.80;97133.00;;;;5045294;28;20201;-62
2021/06/10 07:39:14;;;;;;;8.53;6.80;;;19.70;99.90;20.20;97120.00;;;;5037737;28;20411;-62
2021/06/10 07:42:05;;;;;;;7.30;6.60;;;19.90;99.90;20.50;97118.00;;;;5033711;28;20756;-60
2021/06/10 07:44:53;;;;;;;6.93;6.20;;;20.10;99.90;21.20;97123.00;;;;5031955;28;20233;-61
2021/06/10 07:47:42;;;;;;;10.43;6.50;;;20.40;99.90;21.60;97123.00;;;;5040447;28;20204;-62
2021/06/10 07:50:32;;;;;;;8.30;5.83;;;20.80;99.90;22.10;97124.00;;;;5037135;28;20221;-62
2021/06/10 07:53:20;;;;;;;6.83;6.10;;;21.20;99.90;22.40;97117.00;;;;5034353;28;20397;-61
2021/06/10 07:56:08;;;;;;;6.43;5.80;;;21.60;99.90;22.60;97119.00;;;;5036022;28;20212;-61
2021/06/10 07:58:58;;;;;;;6.53;5.10;;;21.90;99.90;22.60;97122.00;;;;5028216;28;20208;-62
2021/06/10 08:01:47;;;;;;;6.00;5.40;;;22.20;99.90;22.90;97123.00;;;;5025363;28;20233;-60
2021/06/10 08:04:35;;;;;;;6.43;5.03;;;22.40;99.90;23.10;97121.00;;;;5029820;28;20201;-61
2021/06/10 08:07:24;;;;;;;7.20;6.20;;;22.60;99.90;23.50;97112.00;;;;5027073;28;20201;-62
2021/06/10 08:10:13;;;;;;;6.00;5.40;;;22.90;99.90;23.10;97125.00;;;;5028572;28;20217;-61
2021/06/10 08:13:05;;;;;;;6.03;5.50;;;23.10;99.90;23.40;97103.00;;;;5026026;28;20262;-61
2021/06/10 08:15:54;;;;;;;6.33;5.17;;;23.20;99.90;24.10;97104.00;;;;5026364;28;20198;-60
2021/06/10 08:18:43;;;;;;;6.33;5.73;;;23.40;99.90;24.50;97119.00;;;;5026591;28;20279;-61
2021/06/10 08:21:31;;;;;;;8.17;6.07;;;23.70;99.90;24.30;97099.00;;;;5034508;28;20221;-62
2021/06/10 08:24:20;;;;;;;6.30;5.70;;;24.00;99.90;24.60;97118.00;;;;5040276;28;20583;-61
2021/06/10 08:27:08;;;;;;;6.20;5.50;;;24.10;99.90;24.50;97094.00;;;;5038008;28;20452;-61
2021/06/10 08:29:57;;;;;;;7.60;6.03;;;24.10;97.60;25.20;97102.00;;;;5039409;28;20613;-63
2021/06/10 08:32:46;;;;;;;7.87;6.33;;;24.40;97.90;25.00;97089.00;;;;5037986;28;20554;-63
2021/06/10 08:35:35;;;;;;;5.17;4.77;;;24.60;93.40;25.30;97084.00;;;;5041279;28;20583;-61
2021/06/10 08:38:24;;;;;;;4.80;4.40;;;24.80;91.50;25.60;97096.00;;;;5041427;28;20209;-62
2021/06/10 08:41:13;;;;;;;5.23;4.83;;;25.00;89.60;25.40;97078.00;;;;5039147;28;20795;-61
2021/06/10 08:44:02;;;;;;;4.67;4.27;;;25.10;82.60;25.60;97079.00;;;;5043107;28;20197;-61
2021/06/10 08:46:51;;;;;;;4.80;4.03;;;25.20;81.20;26.00;97084.00;;;;5027647;28;20203;-62
2021/06/10 08:49:45;;;;;;;7.63;4.50;;;25.40;82.20;26.00;97084.00;;;;5038346;28;20578;-61
2021/06/10 08:52:34;;;;;;;5.27;4.77;;;25.60;79.70;25.70;97107.00;;;;5040146;28;20687;-61
2021/06/10 08:55:23;;;;;;;4.37;3.97;;;25.60;75.80;25.20;97095.00;;;;5045159;28;20756;-61
2021/06/10 08:58:12;;;;;;;4.67;4.10;;;25.50;74.60;24.60;97095.00;;;;5039705;28;20207;-60
2021/06/10 09:01:02;;;;;;;4.47;4.00;;;25.20;72.60;24.90;97067.00;;;;5025903;28;20232;-61
2021/06/10 09:03:51;;;;;;;7.43;4.67;;;25.10;72.50;25.10;97101.00;;;;5033655;28;20556;-62
2021/06/10 09:06:48;;;;;;;6.77;4.13;;;25.00;73.30;25.10;97104.00;;;;5026606;28;20235;-62
2021/06/10 09:09:39;;;;;;;4.40;4.00;;;25.10;72.70;24.70;97105.00;;;;5034703;28;20224;-60
2021/06/10 09:12:28;;;;;;;5.13;4.63;;;24.90;71.00;24.70;97101.00;;;;5041822;28;20765;-62
2021/06/10 09:15:18;;;;;;;4.37;3.97;;;24.80;71.80;25.20;97083.00;;;;5032258;28;20751;-62
2021/06/10 09:18:07;;;;;;;5.00;4.60;;;24.90;73.10;25.80;97061.00;;;;5033325;28;20201;-62
2021/06/10 09:20:55;;;;;;;5.07;4.53;;;25.10;73.60;25.80;97058.00;;;;5034154;28;20715;-62
2021/06/10 09:23:45;;;;;;;4.37;3.97;;;25.50;72.00;25.10;97053.00;;;;5041187;28;20209;-62
2021/06/10 09:26:33;;;;;;;5.47;4.97;;;25.50;68.10;24.60;97057.00;;;;5033247;28;20215;-62
2021/06/10 09:29:34;;;;;;;5.50;5.00;;;25.30;67.80;24.00;97087.00;;;;5025757;28;20231;-63
2021/06/10 09:32:25;;;;;;;5.10;4.53;;;24.90;67.00;24.00;97084.00;;;;5028914;28;20577;-61
2021/06/10 09:35:14;;;;;;;5.63;3.97;;;24.50;70.10;24.60;97049.00;;;;5034849;28;20274;-64
2021/06/10 09:38:04;;;;;;;4.33;3.93;;;24.70;69.80;24.70;97087.00;;;;5025375;28;20205;-63
2021/06/10 09:41:04;;;;;;;4.97;4.57;;;24.70;65.50;24.40;97094.00;;;;5024367;28;20233;-62
2021/06/10 09:43:55;;;;;;;4.03;3.57;;;24.70;69.10;24.30;97093.00;;;;5024671;28;20198;-62
2021/06/10 09:47:02;;;;;;;4.53;4.13;;;24.60;65.20;24.30;97104.00;;;;5033952;28;20261;-61
2021/06/10 09:49:50;;;;;;;4.60;4.17;;;24.50;65.40;24.50;97089.00;;;;5031113;28;20251;-61
2021/06/10 09:52:49;;;;;;;4.20;3.70;;;24.60;66.20;24.20;97060.00;;;;5025930;28;20213;-62
2021/06/10 09:55:43;;;;;;;4.67;4.17;;;24.60;66.00;25.30;97060.00;;;;5025546;28;20206;-61
2021/06/10 09:58:36;;;;;;;4.97;4.47;;;24.90;66.40;25.20;97052.00;;;;5025595;28;20237;-62
2021/06/10 10:01:25;;;;;;;4.20;3.73;;;25.20;65.10;25.30;97056.00;;;;5034064;28;20232;-63
2021/06/10 10:04:14;;;;;;;5.27;4.40;;;25.30;65.70;25.50;97083.00;;;;5046557;28;20201;-63
2021/06/10 10:07:02;;;;;;;4.47;3.87;;;25.50;63.30;24.30;97089.00;;;;5046851;28;20208;-64
2021/06/10 10:09:51;;;;;;;3.80;3.50;;;25.30;63.50;23.30;97093.00;;;;5033361;28;20231;-63
2021/06/10 10:12:42;;;;;;;4.67;4.30;;;24.40;65.20;23.10;97069.00;;;;5024171;28;20201;-63
2021/06/10 10:15:32;;;;;;;5.20;4.70;;;23.90;68.10;23.20;97102.00;;;;5024512;28;20201;-63
2021/06/10 10:18:21;;;;;;;4.50;4.10;;;23.60;69.50;23.50;97039.00;;;;5024139;28;20201;-62
2021/06/10 10:21:09;;;;;;;4.73;4.23;;;23.50;70.00;23.80;97063.00;;;;5023898;28;20747;-62
2021/06/10 10:24:00;;;;;;;5.63;4.93;;;23.70;69.00;23.70;97081.00;;;;5044483;28;20193;-63
2021/06/10 10:26:48;;;;;;;4.63;4.23;;;23.80;69.10;23.50;97081.00;;;;5023643;28;20205;-61
2021/06/10 10:29:39;;;;;;;4.70;4.30;;;23.70;68.10;24.20;97029.00;;;;5023698;28;20225;-62
2021/06/10 10:32:30;;;;;;;6.17;4.47;;;23.90;67.80;24.80;97042.00;;;;5024850;28;20205;-63
2021/06/10 10:35:32;;;;;;;3.77;3.47;;;24.30;67.90;26.20;97032.00;;;;5036029;28;20197;-62
2021/06/10 10:38:31;;;;;;;4.00;3.60;;;24.80;66.40;27.20;97028.00;;;;5025168;28;20601;-61
2021/06/10 10:41:21;;;;;;;5.03;4.53;;;25.50;67.90;27.50;97035.00;;;;5024750;28;20233;-63
2021/06/10 10:44:20;;;;;;;3.90;3.60;;;26.20;67.40;27.60;97031.00;;;;5023508;28;20211;-64
2021/06/10 10:47:10;;;;;;;4.60;4.00;;;26.80;66.80;26.70;97031.00;;;;5024150;28;20478;-63
2021/06/10 10:50:01;;;;;;;4.50;4.10;;;27.00;66.20;25.80;97070.00;;;;5030583;28;20224;-62
2021/06/10 10:52:56;;;;;;;4.53;4.13;;;26.50;65.00;26.80;97042.00;;;;5036240;28;20223;-63
2021/06/10 10:55:45;;;;;;;5.43;3.77;;;26.50;65.80;25.90;97075.00;;;;5025174;28;20212;-63
2021/06/10 10:58:35;;;;;;;4.73;3.80;;;26.40;65.50;25.10;97086.00;;;;5024558;28;20563;-61
2021/06/10 11:01:30;;;;;;;4.03;3.63;;;25.90;64.30;24.90;97088.00;;;;5024959;28;20223;-61
2021/06/10 11:04:50;;;;;;;3.83;3.50;;;25.50;66.00;24.60;97075.00;;;;5044469;28;20218;-61
2021/06/10 11:07:56;;;;;;;4.10;3.70;;;25.20;66.60;24.50;97084.00;;;;5030657;28;20556;-61
2021/06/10 11:11:06;;;;;;;4.20;3.50;;;24.90;68.00;23.40;97083.00;;;;5036254;28;20721;-63
2021/06/10 11:13:54;;;;;;;4.60;4.20;;;24.50;67.10;22.90;97075.00;;;;5025686;28;20647;-62
2021/06/10 11:17:13;;;;;;;4.40;4.00;;;24.00;68.00;22.70;97076.00;;;;5026513;28;20212;-62
2021/06/10 11:20:06;;;;;;;2.97;2.77;;;23.40;69.70;22.50;97068.00;;;;5026974;28;20248;-62
2021/06/10 11:23:11;;;;;;;4.10;3.63;;;23.10;70.10;22.30;97079.00;;;;5034621;28;20583;-62
2021/06/10 11:26:03;;;;;;;3.93;3.63;;;22.80;71.40;22.40;97087.00;;;;5044198;28;20211;-61
2021/06/10 11:29:01;;;;;;;4.50;3.83;;;22.70;73.20;22.30;97085.00;;;;5041647;28;20568;-62
2021/06/10 11:32:25;;;;;;;6.17;4.43;;;22.60;77.40;22.20;97088.00;;;;5027699;28;20593;-63
2021/06/10 11:35:28;;;;;;;4.17;3.77;;;22.60;82.80;22.10;97077.00;;;;5034937;28;20205;-62
2021/06/10 11:38:22;;;;;;;5.53;5.03;;;22.50;82.00;21.80;97067.00;;;;5027050;28;20551;-62
2021/06/10 11:41:13;;;;;;;5.23;4.43;;;22.40;90.70;21.70;97059.00;;;;5040864;28;20702;-62
2021/06/10 11:44:01;;;;;;;5.33;4.77;;;22.20;87.70;22.20;97008.00;;;;5045176;28;20212;-62
2021/06/10 11:46:50;;;;;;;5.53;4.97;;;22.40;90.20;22.30;97019.00;;;;5042096;28;20284;-62
2021/06/10 11:49:38;;;;;;;5.63;4.97;;;22.50;91.30;22.20;97057.00;;;;5038781;28;20776;-62
2021/06/10 11:52:50;;;;;;;6.90;4.37;;;22.50;91.90;22.20;97066.00;;;;5042440;28;20205;-61
2021/06/10 11:55:40;;;;;;;4.77;4.37;;;22.40;92.00;21.90;97079.00;;;;5038929;28;20618;-62
2021/06/10 11:58:36;;;;;;;4.73;4.23;;;22.30;90.30;22.20;97099.00;;;;5038706;28;20839;-61
2021/06/10 12:01:24;;;;;;;6.33;5.27;;;22.20;91.80;22.30;97101.00;;;;5042172;28;20227;-62
2021/06/10 12:04:13;;;;;;;8.37;5.07;;;22.30;96.00;22.10;97090.00;;;;5035615;28;20618;-62
2021/06/10 12:07:05;;;;;;;7.90;4.70;;;22.30;99.90;21.80;97090.00;;;;5039267;28;20592;-62
2021/06/10 12:09:55;;;;;;;7.50;5.30;;;22.30;99.90;21.30;97100.00;;;;5044356;28;20706;-62
2021/06/10 12:12:46;;;;;;;9.27;5.00;;;22.10;99.90;21.20;97085.00;;;;5044401;28;20695;-62
2021/06/10 12:15:44;;;;;;;6.77;4.83;;;21.90;99.90;21.30;97099.00;;;;5026599;23;20234;-85
2021/06/10 12:18:35;;;;;;;6.67;4.47;;;21.70;99.90;20.80;97099.00;;;;5033852;28;20209;-86
2021/06/10 12:21:25;;;;;;;4.83;4.33;;;21.40;99.90;20.60;97095.00;;;;5029969;28;20220;-84
2021/06/10 12:24:13;;;;;;;6.70;4.93;;;21.10;99.90;20.30;97100.00;;;;5036783;28;20220;-84
2021/06/10 12:27:13;;;;;;;7.03;4.73;;;20.90;99.90;20.20;97102.00;;;;5039764;28;20204;-85
2021/06/10 12:30:04;;;;;;;6.77;5.57;;;20.70;99.90;20.00;97101.00;;;;5028743;28;20637;-85
2021/06/10 12:32:52;;;;;;;7.57;5.07;;;20.50;99.90;19.70;97099.00;;;;5034159;28;20201;-84
2021/06/10 12:35:43;;;;;;;5.33;4.93;;;20.30;99.90;19.40;97099.00;;;;5034761;28;20190;-84
2021/06/10 12:38:34;;;;;;;5.60;4.60;;;20.10;99.90;19.40;97101.00;;;;5032600;28;20242;-82